createdAt,value
2018-04-18T00:00:55.444Z,8.30
2018-04-18T00:03:23.728Z,8.20
2018-04-18T00:05:51.220Z,8.20
2018-04-18T00:08:18.769Z,8.20
2018-04-18T00:10:46.264Z,8.20
2018-04-18T00:13:13.760Z,8.20
2018-04-18T00:15:41.276Z,8.10
2018-04-18T00:18:08.773Z,8.10
2018-04-18T00:20:36.301Z,8.20
2018-04-18T00:23:03.802Z,8.10
2018-04-18T00:25:31.325Z,8.10
2018-04-18T00:27:59.636Z,8.10
2018-04-18T00:30:27.164Z,8.10
2018-04-18T00:32:55.461Z,8.10
2018-04-18T00:35:22.988Z,8.00
2018-04-18T00:37:51.247Z,8.20
2018-04-18T00:40:18.762Z,8.20
2018-04-18T00:42:46.260Z,8.40
2018-04-18T00:45:15.400Z,8.40
2018-04-18T00:47:43.688Z,8.40
2018-04-18T00:50:11.208Z,8.40
2018-04-18T00:52:39.472Z,8.20
2018-04-18T00:55:06.983Z,8.20
2018-04-18T00:57:34.481Z,8.20
2018-04-18T01:00:02.004Z,8.00
2018-04-18T01:02:29.551Z,8.00
2018-04-18T01:04:57.065Z,7.90
2018-04-18T01:07:24.670Z,7.90
2018-04-18T01:09:52.189Z,7.80
2018-04-18T01:12:19.812Z,7.80
2018-04-18T01:14:47.309Z,7.80
2018-04-18T01:17:14.820Z,7.80
2018-04-18T01:19:42.318Z,7.70
2018-04-18T01:22:10.600Z,7.70
2018-04-18T01:24:38.092Z,7.60
2018-04-18T01:27:05.608Z,7.60
2018-04-18T01:29:33.105Z,7.60
2018-04-18T01:32:00.668Z,7.60
2018-04-18T01:34:28.551Z,7.60
2018-04-18T01:36:56.060Z,7.70
2018-04-18T01:39:24.365Z,7.70
2018-04-18T01:41:51.885Z,7.70
2018-04-18T01:44:19.383Z,7.70
2018-04-18T01:46:46.919Z,7.60
2018-04-18T01:49:21.932Z,7.50
2018-04-18T01:51:49.456Z,7.50
2018-04-18T01:54:16.952Z,7.50
2018-04-18T01:56:44.489Z,7.50
2018-04-18T01:59:11.985Z,7.50
2018-04-18T02:01:39.481Z,7.50
2018-04-18T02:04:06.999Z,7.50
2018-04-18T02:06:34.501Z,7.50
2018-04-18T02:09:02.017Z,7.50
2018-04-18T02:11:30.285Z,7.40
2018-04-18T02:13:59.409Z,7.40
2018-04-18T02:16:27.702Z,7.50
2018-04-18T02:18:55.244Z,7.40
2018-04-18T02:21:22.743Z,7.60
2018-04-18T02:23:50.252Z,7.70
2018-04-18T02:26:18.511Z,7.60
2018-04-18T02:28:46.789Z,7.60
2018-04-18T02:31:15.052Z,7.60
2018-04-18T02:33:42.568Z,7.60
2018-04-18T02:36:10.070Z,7.60
2018-04-18T02:38:39.099Z,7.60
2018-04-18T02:41:06.595Z,7.60
2018-04-18T02:43:34.090Z,7.60
2018-04-18T02:46:02.374Z,7.50
2018-04-18T02:48:30.651Z,7.50
2018-04-18T02:50:58.940Z,7.60
2018-04-18T02:53:26.444Z,7.60
2018-04-18T02:55:53.961Z,7.50
2018-04-18T02:58:21.463Z,7.50
2018-04-18T03:00:48.981Z,7.50
2018-04-18T03:03:16.480Z,7.40
2018-04-18T03:05:44.007Z,7.40
2018-04-18T03:08:11.516Z,7.40
2018-04-18T03:10:39.820Z,7.50
2018-04-18T03:13:08.092Z,7.40
2018-04-18T03:15:36.353Z,7.40
2018-04-18T03:18:04.657Z,7.30
2018-04-18T03:20:32.152Z,7.30
2018-04-18T03:22:59.660Z,7.30
2018-04-18T03:25:27.943Z,7.30
2018-04-18T03:27:55.461Z,7.30
2018-04-18T03:30:22.948Z,7.20
2018-04-18T03:32:51.221Z,7.20
2018-04-18T03:35:19.517Z,7.20
2018-04-18T03:37:47.072Z,7.20
2018-04-18T03:40:14.579Z,7.20
2018-04-18T03:42:42.117Z,7.10
2018-04-18T03:45:09.649Z,7.10
2018-04-18T03:47:37.157Z,7.10
2018-04-18T03:50:04.668Z,7.10
2018-04-18T03:52:32.164Z,7.10
2018-04-18T03:54:59.673Z,7.10
2018-04-18T03:57:27.964Z,7.00
2018-04-18T03:59:55.479Z,7.00
2018-04-18T04:02:22.972Z,7.00
2018-04-18T04:04:50.493Z,7.00
2018-04-18T04:07:18.757Z,7.00
2018-04-18T04:09:46.268Z,6.90
2018-04-18T04:12:13.821Z,6.90
2018-04-18T04:14:41.332Z,6.90
2018-04-18T04:17:20.644Z,6.90
2018-04-18T04:20:00.113Z,6.90
2018-04-18T04:22:40.316Z,6.90
2018-04-18T04:25:07.848Z,6.90
2018-04-18T04:27:36.108Z,6.90
2018-04-18T04:30:03.643Z,6.90
2018-04-18T04:32:31.158Z,6.90
2018-04-18T04:34:58.676Z,6.90
2018-04-18T04:37:26.176Z,6.90
2018-04-18T04:39:53.692Z,6.90
2018-04-18T04:42:21.190Z,6.90
2018-04-18T04:44:48.711Z,6.90
2018-04-18T04:47:16.980Z,7.00
2018-04-18T04:49:44.517Z,7.00
2018-04-18T04:52:12.049Z,7.00
2018-04-18T04:54:39.562Z,7.10
2018-04-18T04:57:07.533Z,7.10
2018-04-18T04:59:35.788Z,7.20
2018-04-18T05:02:03.304Z,7.20
2018-04-18T05:04:31.133Z,7.30
2018-04-18T05:06:58.653Z,7.30
2018-04-18T05:09:26.152Z,7.30
2018-04-18T05:11:54.437Z,7.40
2018-04-18T05:14:22.705Z,7.40
2018-04-18T05:16:50.212Z,7.40
2018-04-18T05:19:17.713Z,7.40
2018-04-18T05:21:45.225Z,7.60
2018-04-18T05:24:12.725Z,7.60
2018-04-18T05:26:40.281Z,7.60
2018-04-18T05:29:07.760Z,7.70
2018-04-18T05:31:36.044Z,7.80
2018-04-18T05:34:04.336Z,7.90
2018-04-18T05:36:31.892Z,7.90
2018-04-18T05:39:00.185Z,7.90
2018-04-18T05:41:27.689Z,7.90
2018-04-18T05:43:55.200Z,8.00
2018-04-18T05:46:22.698Z,8.10
2018-04-18T05:48:50.217Z,8.10
2018-04-18T05:51:17.761Z,8.20
2018-04-18T05:53:45.325Z,8.20
2018-04-18T05:56:12.886Z,8.30
2018-04-18T05:58:40.410Z,8.40
2018-04-18T06:01:07.909Z,8.60
2018-04-18T06:03:35.425Z,8.70
2018-04-18T06:06:03.698Z,9.30
2018-04-18T06:08:31.217Z,9.20
2018-04-18T06:10:58.712Z,9.50
2018-04-18T06:13:26.225Z,9.70
2018-04-18T06:15:53.720Z,10.00
2018-04-18T06:18:21.237Z,10.40
2018-04-18T06:20:48.744Z,10.40
2018-04-18T06:23:16.249Z,10.50
2018-04-18T06:25:43.764Z,10.70
2018-04-18T06:28:11.260Z,10.80
2018-04-18T06:30:38.776Z,11.10
2018-04-18T06:33:06.271Z,11.40
2018-04-18T06:35:33.788Z,11.30
2018-04-18T06:38:01.286Z,11.30
2018-04-18T06:40:28.801Z,11.30
2018-04-18T06:42:56.296Z,11.40
2018-04-18T06:45:24.576Z,11.80
2018-04-18T06:47:52.068Z,11.80
2018-04-18T06:50:19.580Z,12.10
2018-04-18T06:52:47.841Z,12.70
2018-04-18T06:55:15.752Z,12.70
2018-04-18T06:57:43.269Z,12.70
2018-04-18T07:00:10.784Z,12.70
2018-04-18T07:02:38.280Z,12.80
2018-04-18T07:05:05.794Z,12.90
2018-04-18T07:07:33.285Z,13.00
2018-04-18T07:10:00.784Z,13.10
2018-04-18T07:12:28.300Z,13.50
2018-04-18T07:14:55.798Z,13.80
2018-04-18T07:17:23.313Z,14.10
2018-04-18T07:19:50.809Z,14.50
2018-04-18T07:22:19.089Z,15.10
2018-04-18T07:24:46.585Z,15.00
2018-04-18T07:27:14.101Z,15.20
2018-04-18T07:29:41.608Z,15.40
2018-04-18T07:32:09.120Z,15.50
2018-04-18T07:34:36.616Z,15.70
2018-04-18T07:37:04.109Z,16.00
2018-04-18T07:39:31.629Z,16.20
2018-04-18T07:41:59.129Z,16.50
2018-04-18T07:44:27.412Z,16.80
2018-04-18T07:46:55.681Z,17.00
2018-04-18T07:49:23.965Z,16.90
2018-04-18T07:51:52.220Z,17.00
2018-04-18T07:54:19.737Z,17.00
2018-04-18T07:56:47.233Z,17.30
2018-04-18T07:59:14.753Z,17.50
2018-04-18T08:01:42.256Z,17.60
2018-04-18T08:04:09.774Z,17.80
2018-04-18T08:06:37.277Z,17.70
2018-04-18T08:09:04.787Z,17.90
2018-04-18T08:11:32.283Z,18.10
2018-04-18T08:13:59.821Z,17.90
2018-04-18T08:16:27.316Z,18.00
2018-04-18T08:18:55.580Z,17.80
2018-04-18T08:21:23.096Z,17.70
2018-04-18T08:23:50.597Z,18.00
2018-04-18T08:26:18.113Z,17.70
2018-04-18T08:28:45.620Z,17.80
2018-04-18T08:31:13.143Z,18.00
2018-04-18T08:33:40.873Z,18.20
2018-04-18T08:36:08.393Z,18.00
2018-04-18T08:38:35.890Z,18.30
2018-04-18T08:41:03.404Z,18.20
2018-04-18T08:43:30.904Z,18.50
2018-04-18T08:45:58.429Z,18.40
2018-04-18T08:48:25.926Z,18.10
2018-04-18T08:50:53.456Z,18.20
2018-04-18T08:53:21.717Z,18.60
2018-04-18T08:55:49.208Z,18.60
2018-04-18T08:58:16.721Z,18.80
2018-04-18T09:00:44.216Z,18.70
2018-04-18T09:03:12.493Z,18.60
2018-04-18T09:05:39.991Z,18.50
2018-04-18T09:08:08.264Z,18.70
2018-04-18T09:10:35.765Z,18.70
2018-04-18T09:13:04.045Z,18.70
2018-04-18T09:15:32.304Z,19.00
2018-04-18T09:17:59.817Z,18.90
2018-04-18T09:20:27.313Z,18.90
2018-04-18T09:22:54.833Z,18.90
2018-04-18T09:25:22.329Z,18.90
2018-04-18T09:27:49.860Z,19.00
2018-04-18T09:30:17.362Z,19.10
2018-04-18T09:32:44.852Z,19.00
2018-04-18T09:35:12.361Z,18.80
2018-04-18T09:37:39.858Z,18.60
2018-04-18T09:40:07.389Z,18.90
2018-04-18T09:42:34.883Z,19.30
2018-04-18T09:45:02.395Z,19.40
2018-04-18T09:47:29.893Z,19.30
2018-04-18T09:49:57.405Z,19.20
2018-04-18T09:52:24.892Z,19.60
2018-04-18T09:54:53.177Z,19.50
2018-04-18T09:57:21.436Z,19.30
2018-04-18T09:59:49.717Z,18.80
2018-04-18T10:02:17.982Z,18.90
2018-04-18T10:04:45.675Z,18.90
2018-04-18T10:07:13.168Z,19.10
2018-04-18T10:09:40.696Z,19.00
2018-04-18T10:12:08.190Z,19.10
2018-04-18T10:14:35.684Z,19.20
2018-04-18T10:17:03.968Z,19.20
2018-04-18T10:19:32.232Z,19.80
2018-04-18T10:21:59.744Z,19.70
2018-04-18T10:24:27.246Z,20.30
2018-04-18T10:26:54.761Z,20.30
2018-04-18T10:29:22.256Z,20.00
2018-04-18T10:31:49.774Z,19.60
2018-04-18T10:34:17.268Z,19.60
2018-04-18T10:36:44.776Z,19.70
2018-04-18T10:39:12.268Z,20.00
2018-04-18T10:41:39.780Z,19.90
2018-04-18T10:44:07.271Z,20.10
2018-04-18T10:46:34.788Z,19.90
2018-04-18T10:49:03.054Z,19.70
2018-04-18T10:51:31.332Z,19.80
2018-04-18T10:53:59.628Z,20.00
2018-04-18T10:56:27.145Z,19.90
2018-04-18T10:58:54.745Z,19.80
2018-04-18T11:01:22.244Z,19.50
2018-04-18T11:03:49.760Z,19.70
2018-04-18T11:06:17.251Z,19.90
2018-04-18T11:08:44.773Z,20.20
2018-04-18T11:11:12.332Z,20.10
2018-04-18T11:13:39.893Z,20.00
2018-04-18T11:16:07.401Z,20.30
2018-04-18T11:18:35.009Z,20.60
2018-04-18T11:21:02.510Z,20.70
2018-04-18T11:23:30.033Z,20.40
2018-04-18T11:25:57.584Z,20.10
2018-04-18T11:28:25.096Z,20.00
2018-04-18T11:30:52.589Z,20.00
2018-04-18T11:33:20.869Z,20.20
2018-04-18T11:35:49.128Z,20.00
2018-04-18T11:38:16.710Z,20.00
2018-04-18T11:40:44.204Z,20.10
2018-04-18T11:43:11.701Z,20.20
2018-04-18T11:45:39.213Z,20.00
2018-04-18T11:48:06.745Z,20.10
2018-04-18T11:50:34.261Z,20.40
2018-04-18T11:53:01.752Z,20.10
2018-04-18T11:55:30.029Z,20.40
2018-04-18T11:57:58.289Z,20.50
2018-04-18T12:00:26.580Z,20.40
2018-04-18T12:02:54.845Z,20.30
2018-04-18T12:05:23.128Z,20.50
2018-04-18T12:07:51.393Z,20.60
2018-04-18T12:10:19.681Z,20.80
2018-04-18T12:12:47.968Z,20.90
2018-04-18T12:15:15.495Z,20.90
2018-04-18T12:17:42.993Z,21.10
2018-04-18T12:20:10.480Z,20.90
2018-04-18T12:22:37.990Z,20.90
2018-04-18T12:25:06.249Z,20.70
2018-04-18T12:27:33.756Z,20.70
2018-04-18T12:30:01.297Z,20.80
2018-04-18T12:32:28.856Z,21.10
2018-04-18T12:34:56.350Z,21.10
2018-04-18T12:37:23.860Z,21.00
2018-04-18T12:39:52.120Z,21.20
2018-04-18T12:42:20.404Z,21.40
2018-04-18T12:44:48.660Z,21.30
2018-04-18T12:47:16.177Z,21.30
2018-04-18T12:49:43.717Z,21.30
2018-04-18T12:52:11.237Z,20.80
2018-04-18T12:54:38.733Z,20.90
2018-04-18T12:57:06.284Z,21.10
2018-04-18T12:59:33.803Z,21.10
2018-04-18T13:02:01.310Z,21.00
2018-04-18T13:04:28.819Z,20.90
2018-04-18T13:06:56.312Z,21.10
2018-04-18T13:09:24.596Z,20.60
2018-04-18T13:11:52.157Z,20.60
2018-04-18T13:14:19.713Z,20.50
2018-04-18T13:16:47.268Z,20.60
2018-04-18T13:19:14.781Z,21.00
2018-04-18T13:21:42.283Z,21.00
2018-04-18T13:24:09.792Z,21.00
2018-04-18T13:26:37.301Z,21.10
2018-04-18T13:29:04.812Z,21.20
2018-04-18T13:31:32.305Z,21.40
2018-04-18T13:34:00.572Z,21.30
2018-04-18T13:36:28.881Z,21.10
2018-04-18T13:38:56.376Z,21.10
2018-04-18T13:41:23.893Z,21.50
2018-04-18T13:43:51.388Z,21.50
2018-04-18T13:46:18.905Z,21.60
2018-04-18T13:48:46.465Z,21.20
2018-04-18T13:51:13.977Z,20.80
2018-04-18T13:53:41.476Z,20.70
2018-04-18T13:56:09.041Z,21.00
2018-04-18T13:58:36.544Z,21.00
2018-04-18T14:01:04.059Z,21.20
2018-04-18T14:03:31.570Z,21.10
2018-04-18T14:05:59.168Z,20.90
2018-04-18T14:08:27.449Z,20.80
2018-04-18T14:10:55.006Z,20.80
2018-04-18T14:13:22.516Z,20.90
2018-04-18T14:15:50.013Z,20.80
2018-04-18T14:18:18.292Z,20.90
2018-04-18T14:20:46.557Z,21.10
2018-04-18T14:23:14.853Z,21.10
2018-04-18T14:25:42.415Z,21.10
2018-04-18T14:28:09.928Z,21.30
2018-04-18T14:30:37.426Z,21.10
2018-04-18T14:33:04.988Z,21.00
2018-04-18T14:35:32.541Z,21.10
2018-04-18T14:38:00.821Z,21.00
2018-04-18T14:40:28.318Z,21.00
2018-04-18T14:42:55.833Z,20.90
2018-04-18T14:45:24.121Z,20.80
2018-04-18T14:47:51.668Z,20.80
2018-04-18T14:50:19.164Z,20.90
2018-04-18T14:52:46.691Z,21.00
2018-04-18T14:55:14.244Z,21.00
2018-04-18T14:57:41.817Z,21.00
2018-04-18T15:00:09.373Z,21.10
2018-04-18T15:02:36.921Z,20.90
2018-04-18T15:05:04.484Z,20.80
2018-04-18T15:07:32.044Z,20.80
2018-04-18T15:09:59.927Z,20.80
2018-04-18T15:12:27.420Z,20.80
2018-04-18T15:14:54.932Z,20.70
2018-04-18T15:17:22.485Z,20.70
2018-04-18T15:19:50.040Z,20.80
2018-04-18T15:22:17.536Z,20.90
2018-04-18T15:24:45.160Z,20.80
2018-04-18T15:27:12.724Z,20.80
2018-04-18T15:29:40.244Z,20.70
2018-04-18T15:32:07.747Z,20.80
2018-04-18T15:34:35.245Z,20.70
2018-04-18T15:37:02.773Z,20.60
2018-04-18T15:39:30.272Z,20.50
2018-04-18T15:41:57.789Z,20.60
2018-04-18T15:44:25.288Z,20.50
2018-04-18T15:46:52.883Z,20.30
2018-04-18T15:49:21.144Z,20.20
2018-04-18T15:51:49.441Z,20.30
2018-04-18T15:54:17.002Z,20.20
2018-04-18T15:56:44.520Z,20.20
2018-04-18T15:59:12.012Z,20.00
2018-04-18T16:01:40.289Z,19.90
2018-04-18T16:04:08.549Z,20.00
2018-04-18T16:06:36.833Z,19.90
2018-04-18T16:09:05.092Z,19.90
2018-04-18T16:11:32.676Z,19.90
2018-04-18T16:14:00.176Z,19.90
2018-04-18T16:16:28.019Z,19.70
2018-04-18T16:18:55.560Z,19.70
2018-04-18T16:21:23.445Z,19.70
2018-04-18T16:23:50.941Z,19.70
2018-04-18T16:26:18.459Z,19.60
2018-04-18T16:28:46.004Z,19.50
2018-04-18T16:31:13.500Z,19.40
2018-04-18T16:33:41.016Z,19.40
2018-04-18T16:36:08.580Z,19.30
2018-04-18T16:38:36.099Z,19.40
2018-04-18T16:41:03.595Z,19.30
2018-04-18T16:43:31.152Z,19.30
2018-04-18T16:45:58.717Z,19.20
2018-04-18T16:48:26.236Z,19.20
2018-04-18T16:50:53.732Z,19.20
2018-04-18T16:53:21.245Z,19.00
2018-04-18T16:55:48.744Z,19.00
2018-04-18T16:58:16.261Z,18.90
2018-04-18T17:00:43.756Z,18.80
2018-04-18T17:03:12.036Z,18.80
2018-04-18T17:05:39.542Z,18.70
2018-04-18T17:08:07.072Z,18.70
2018-04-18T17:10:34.612Z,18.60
2018-04-18T17:13:02.109Z,18.50
2018-04-18T17:15:29.733Z,18.50
2018-04-18T17:17:57.240Z,18.50
2018-04-18T17:20:24.756Z,18.30
2018-04-18T17:22:52.259Z,18.20
2018-04-18T17:25:19.865Z,18.20
2018-04-18T17:27:47.377Z,18.20
2018-04-18T17:30:14.893Z,18.00
2018-04-18T17:32:42.388Z,18.00
2018-04-18T17:35:10.222Z,17.90
2018-04-18T17:37:37.723Z,17.90
2018-04-18T17:40:05.236Z,17.80
2018-04-18T17:42:32.781Z,17.70
2018-04-18T17:45:00.296Z,17.60
2018-04-18T17:49:48.568Z,17.50
2018-04-18T17:52:16.069Z,17.50
2018-04-18T17:54:43.573Z,17.30
2018-04-18T17:57:11.096Z,17.20
2018-04-18T17:59:38.587Z,17.00
2018-04-18T18:02:06.097Z,17.00
2018-04-18T18:04:33.601Z,16.90
2018-04-18T18:07:01.113Z,16.70
2018-04-18T18:09:28.608Z,16.60
2018-04-18T18:11:56.201Z,16.50
2018-04-18T18:14:24.465Z,16.20
2018-04-18T18:16:51.976Z,16.20
2018-04-18T18:19:19.469Z,16.10
2018-04-18T18:21:46.983Z,15.90
2018-04-18T18:24:14.483Z,15.80
2018-04-18T18:26:41.991Z,15.70
2018-04-18T18:29:09.489Z,15.60
2018-04-18T18:31:37.044Z,15.50
2018-04-18T18:34:04.526Z,15.40
2018-04-18T18:36:32.051Z,15.30
2018-04-18T18:38:59.560Z,15.30
2018-04-18T18:41:27.845Z,15.10
2018-04-18T18:43:56.112Z,15.00
2018-04-18T18:46:24.410Z,14.90
2018-04-18T18:48:51.913Z,14.80
2018-04-18T18:51:19.424Z,14.90
2018-04-18T18:53:46.925Z,14.80
2018-04-18T18:56:14.421Z,14.80
2018-04-18T18:58:42.714Z,14.60
2018-04-18T19:01:10.210Z,14.50
2018-04-18T19:03:37.726Z,14.50
2018-04-18T19:06:05.221Z,14.40
2018-04-18T19:08:32.737Z,14.30
2018-04-18T19:11:01.009Z,14.10
2018-04-18T19:13:29.289Z,14.00
2018-04-18T19:15:57.548Z,13.90
2018-04-18T19:18:25.057Z,13.90
2018-04-18T19:20:52.552Z,13.90
2018-04-18T19:23:20.069Z,13.80
2018-04-18T19:25:47.564Z,13.70
2018-04-18T19:28:15.111Z,13.70
2018-04-18T19:30:42.589Z,13.60
2018-04-18T19:33:10.105Z,13.50
2018-04-18T19:35:37.600Z,13.40
2018-04-18T19:38:05.113Z,13.40
2018-04-18T19:40:32.760Z,13.40
2018-04-18T19:43:00.280Z,13.40
2018-04-18T19:45:28.592Z,13.30
2018-04-18T19:47:56.092Z,13.20
2018-04-18T19:50:23.613Z,13.20
2018-04-18T19:52:51.164Z,13.10
2018-04-18T19:55:18.697Z,13.10
2018-04-18T19:57:46.200Z,13.10
2018-04-18T20:00:13.714Z,13.00
2018-04-18T20:02:41.209Z,12.90
2018-04-18T20:05:08.733Z,12.90
2018-04-18T20:07:37.003Z,12.80
2018-04-18T20:10:04.525Z,12.70
2018-04-18T20:12:32.025Z,12.70
2018-04-18T20:15:00.308Z,12.70
2018-04-18T20:17:28.569Z,12.60
2018-04-18T20:19:56.162Z,12.60
2018-04-18T20:22:23.702Z,12.50
2018-04-18T20:24:51.281Z,12.40
2018-04-18T20:27:18.776Z,12.30
2018-04-18T20:29:46.272Z,12.30
2018-04-18T20:32:14.561Z,12.20
2018-04-18T20:34:42.828Z,12.20
2018-04-18T20:37:11.104Z,12.20
2018-04-18T20:39:39.371Z,12.20
2018-04-18T20:42:07.672Z,12.20
2018-04-18T20:44:35.169Z,12.10
2018-04-18T20:47:02.788Z,12.20
2018-04-18T20:49:30.356Z,12.10
2018-04-18T20:51:57.872Z,12.10
2018-04-18T20:54:25.382Z,12.00
2018-04-18T20:56:52.900Z,12.10
2018-04-18T20:59:20.401Z,12.10
2018-04-18T21:01:47.942Z,12.00
2018-04-18T21:04:15.452Z,12.00
2018-04-18T21:06:43.060Z,12.00
2018-04-18T21:09:10.552Z,12.00
2018-04-18T21:11:38.068Z,11.90
2018-04-18T21:14:06.333Z,11.80
2018-04-18T21:16:34.625Z,11.80
2018-04-18T21:19:02.125Z,11.80
2018-04-18T21:21:29.645Z,11.80
2018-04-18T21:23:57.200Z,11.80
2018-04-18T21:26:24.695Z,11.80
2018-04-18T21:28:52.209Z,11.70
2018-04-18T21:31:20.467Z,11.80
2018-04-18T21:33:47.980Z,11.80
2018-04-18T21:36:15.481Z,11.80
2018-04-18T21:38:43.077Z,11.80
2018-04-18T21:41:10.578Z,11.90
2018-04-18T21:43:38.099Z,11.90
2018-04-18T21:46:05.644Z,11.90
2018-04-18T21:48:33.249Z,11.90
2018-04-18T21:51:00.724Z,11.90
2018-04-18T21:53:29.041Z,12.00
2018-04-18T21:55:56.701Z,12.00
2018-04-18T21:58:24.233Z,12.00
2018-04-18T22:00:51.728Z,11.90
2018-04-18T22:03:19.229Z,12.00
2018-04-18T22:05:46.741Z,12.00
2018-04-18T22:08:14.236Z,12.00
2018-04-18T22:10:41.750Z,12.00
2018-04-18T22:13:09.245Z,12.00
2018-04-18T22:15:36.765Z,12.00
2018-04-18T22:18:04.324Z,12.00
2018-04-18T22:20:31.886Z,12.10
2018-04-18T22:22:59.384Z,12.10
2018-04-18T22:25:26.995Z,12.10
2018-04-18T22:27:55.256Z,12.40
2018-04-18T22:30:23.544Z,12.40
2018-04-18T22:32:51.804Z,12.40
2018-04-18T22:35:20.087Z,12.30
2018-04-18T22:37:48.354Z,12.20
2018-04-18T22:40:16.657Z,12.10
2018-04-18T22:42:44.230Z,12.10
2018-04-18T22:45:11.749Z,12.10
2018-04-18T22:47:40.983Z,12.20
2018-04-18T22:50:09.493Z,12.10
2018-04-18T22:52:37.007Z,12.10
2018-04-18T22:55:04.501Z,12.00
2018-04-18T22:57:32.015Z,12.10
2018-04-18T23:00:00.301Z,12.00
2018-04-18T23:02:27.874Z,12.00
2018-04-18T23:04:55.376Z,12.00
2018-04-18T23:07:22.910Z,12.00
2018-04-18T23:09:50.444Z,11.90
2018-04-18T23:12:17.960Z,11.90
2018-04-18T23:14:46.281Z,11.90
2018-04-18T23:17:13.796Z,11.90
2018-04-18T23:19:41.305Z,11.90
2018-04-18T23:22:08.820Z,11.80
2018-04-18T23:24:36.316Z,11.80
2018-04-18T23:27:03.828Z,11.80
2018-04-18T23:29:31.326Z,11.80
2018-04-18T23:31:58.849Z,11.80
2018-04-18T23:34:26.349Z,11.80
2018-04-18T23:36:53.877Z,11.60
2018-04-18T23:39:22.142Z,11.50
2018-04-18T23:41:49.678Z,11.50
2018-04-18T23:44:17.186Z,11.40
2018-04-18T23:46:44.681Z,11.40
2018-04-18T23:49:12.196Z,11.30
2018-04-18T23:51:40.468Z,11.10
2018-04-18T23:54:08.749Z,11.10
2018-04-18T23:56:37.008Z,11.10
2018-04-18T23:59:05.298Z,11.00
